Alabama A and M, Alabama
Current Conditions -  °F | °C
As of 12:55 PM on Friday 31 Oct 2014 (Local Time) from KMDQ Reporting Station
Broken Clouds Broken Clouds  
Wind Chill: 54°   Ceiling: 3700
Heat Index: 54°   Visibility: 10mi
Dew Point: 43°   Wind: 9mph
Humidity: 67%   Direction: 350°N
Pressure: 29.98"   Gusts: NA
Location:  34.7869°N, 86.5719°W
Report Text: KMDQ 311755Z AUTO 35008KT 10SM BKN037 BKN043 12/06 A2998 RMK AO2
Loading
Personal Weather Stations






























Interactive Weather Map New forecast layout! Learn more

10-Day Weather Forecast

Advertisements
Track Severe Weather on mobile